Time;durP1;ratioP1;P1;durP2;ratioP2;P2;SDS_P1;SDS_P2;PMS_P1;PMS_P2;Temp;Humidity;BMP_temperature;BMP_pressure;BME280_temperature;BME280_humidity;BME280_pressure;Samples;Min_cycle;Max_cycle;Signal;HPM_P1;HPM_P2
2022/12/02 00:00:26;;;;;;;34.42;14.63;;;-0.60;99.90;;;;;;4410648;28;659166;-67
2022/12/02 00:03:13;;;;;;;74.77;23.13;;;-0.60;99.90;;;;;;4392136;28;659470;-68
2022/12/02 00:06:00;;;;;;;65.85;21.48;;;-0.60;99.90;;;;;;4394298;28;658681;-68
2022/12/02 00:08:47;;;;;;;64.57;20.87;;;-0.60;99.90;;;;;;4415905;28;658544;-69
2022/12/02 00:11:34;;;;;;;33.77;13.97;;;-0.60;99.90;;;;;;4412114;28;658512;-69
2022/12/02 00:14:23;;;;;;;57.27;20.90;;;-0.60;99.90;;;;;;4383491;28;658530;-68
2022/12/02 00:17:11;;;;;;;30.35;13.32;;;-0.70;99.90;;;;;;4390556;28;659643;-68
2022/12/02 00:19:59;;;;;;;46.77;17.63;;;-0.70;99.90;;;;;;4413579;28;659908;-69
2022/12/02 00:22:46;;;;;;;26.07;11.87;;;-0.70;99.90;;;;;;4395236;28;658800;-68
2022/12/02 00:25:33;;;;;;;26.47;11.77;;;-0.70;99.90;;;;;;4419873;28;658703;-68
2022/12/02 00:28:20;;;;;;;25.93;11.63;;;-0.70;99.90;;;;;;4397822;28;658697;-67
2022/12/02 00:31:07;;;;;;;29.37;11.57;;;-0.70;99.90;;;;;;4415345;28;658521;-68
2022/12/02 00:33:57;;;;;;;32.67;12.97;;;-0.80;99.90;;;;;;4411907;28;658057;-68
2022/12/02 00:36:44;;;;;;;23.40;10.90;;;-0.80;99.90;;;;;;4407878;28;658769;-68
2022/12/02 00:39:31;;;;;;;27.10;12.03;;;-0.90;99.90;;;;;;4390145;28;658523;-68
2022/12/02 00:42:18;;;;;;;26.87;11.17;;;-0.80;99.90;;;;;;4410323;28;659144;-69
2022/12/02 00:48:11;;;;;;;23.35;10.27;;;-0.90;99.90;;;;;;4364343;28;659402;-67
2022/12/02 00:51:00;;;;;;;40.43;15.00;;;-0.90;99.90;;;;;;4406266;28;659585;-69
2022/12/02 00:53:47;;;;;;;32.73;12.33;;;-0.90;99.90;;;;;;4395317;28;658601;-69
2022/12/02 00:56:34;;;;;;;23.33;10.33;;;-0.90;99.90;;;;;;4410528;28;658789;-68
2022/12/02 00:59:21;;;;;;;45.73;14.40;;;-0.90;99.90;;;;;;4392735;28;658493;-68
2022/12/02 01:02:08;;;;;;;29.30;11.55;;;-1.00;99.90;;;;;;4411648;28;659003;-69
2022/12/02 01:04:55;;;;;;;38.43;13.00;;;-1.00;99.90;;;;;;4390169;28;658620;-68
2022/12/02 01:07:44;;;;;;;56.73;17.57;;;-1.00;99.90;;;;;;4412594;28;659120;-68
2022/12/02 01:10:31;;;;;;;24.27;10.73;;;-1.00;99.90;;;;;;4394379;28;658476;-68
2022/12/02 01:13:18;;;;;;;51.65;15.02;;;-1.00;99.90;;;;;;4407606;28;657988;-68
2022/12/02 01:16:05;;;;;;;43.73;15.20;;;-1.00;99.90;;;;;;4390962;28;659385;-67
2022/12/02 01:18:52;;;;;;;49.07;15.37;;;-1.00;99.90;;;;;;4405970;28;659925;-68
2022/12/02 01:21:40;;;;;;;58.40;16.37;;;-1.00;99.90;;;;;;4409282;28;659200;-68
2022/12/02 01:24:28;;;;;;;48.45;16.35;;;-1.10;99.90;;;;;;4415302;28;658887;-68
2022/12/02 01:27:16;;;;;;;34.43;13.40;;;-1.10;99.90;;;;;;4386723;28;658649;-68
2022/12/02 01:30:03;;;;;;;46.27;16.80;;;-1.10;99.90;;;;;;4407717;28;659349;-68
2022/12/02 01:32:50;;;;;;;31.45;13.30;;;-1.10;99.90;;;;;;4388390;28;659517;-68
2022/12/02 01:35:37;;;;;;;50.83;15.30;;;-1.10;99.90;;;;;;4410930;28;658889;-68
2022/12/02 01:38:24;;;;;;;29.97;11.73;;;-1.20;99.90;;;;;;4413358;28;658623;-69
2022/12/02 01:41:13;;;;;;;34.60;14.33;;;-1.20;99.90;;;;;;4386134;28;659739;-68
2022/12/02 01:44:00;;;;;;;41.28;16.63;;;-1.20;99.90;;;;;;4399105;28;658566;-68
2022/12/02 01:46:47;;;;;;;27.20;12.20;;;-1.20;99.90;;;;;;4417386;28;658964;-68
2022/12/02 01:49:35;;;;;;;41.83;16.63;;;-1.20;99.90;;;;;;4419948;28;658684;-69
2022/12/02 01:52:22;;;;;;;32.67;13.70;;;-1.20;99.90;;;;;;4390931;28;660368;-68
2022/12/02 01:55:11;;;;;;;27.20;11.30;;;-1.20;99.90;;;;;;4412513;28;658432;-68
2022/12/02 01:58:00;;;;;;;29.33;12.67;;;-1.20;99.90;;;;;;4391267;28;658923;-69
2022/12/02 02:00:47;;;;;;;33.47;14.67;;;-1.30;99.90;;;;;;4394980;28;660225;-68
2022/12/02 02:03:34;;;;;;;40.07;16.40;;;-1.20;99.90;;;;;;4410988;28;658894;-69
2022/12/02 02:06:21;;;;;;;39.17;16.27;;;-1.20;99.90;;;;;;4388584;28;659198;-68
2022/12/02 02:09:08;;;;;;;34.90;15.17;;;-1.20;99.90;;;;;;4410180;28;659146;-68
2022/12/02 02:11:56;;;;;;;34.87;15.07;;;-1.20;99.90;;;;;;4395543;28;659587;-69
2022/12/02 02:14:44;;;;;;;38.63;16.63;;;-1.20;99.90;;;;;;4415602;28;659209;-68
2022/12/02 02:17:31;;;;;;;35.57;14.60;;;-1.20;99.90;;;;;;4389924;28;659703;-68
2022/12/02 02:20:19;;;;;;;33.83;13.27;;;-1.20;99.90;;;;;;4410480;28;659703;-69
2022/12/02 02:23:21;;;;;;;37.13;15.00;;;-1.20;99.90;;;;;;4401131;28;659504;-68
2022/12/02 02:26:09;;;;;;;33.57;14.47;;;-1.20;99.90;;;;;;4385593;28;658573;-68
2022/12/02 02:28:56;;;;;;;38.53;14.13;;;-1.20;99.90;;;;;;4393291;28;658660;-68
2022/12/02 02:31:43;;;;;;;32.70;13.43;;;-1.30;99.90;;;;;;4414384;28;659962;-68
2022/12/02 02:34:30;;;;;;;39.47;16.13;;;-1.30;99.90;;;;;;4396260;28;658521;-68
2022/12/02 02:37:17;;;;;;;46.23;18.03;;;-1.30;99.90;;;;;;4414276;28;658678;-68
2022/12/02 02:40:07;;;;;;;36.33;14.77;;;-1.30;99.90;;;;;;4412985;28;658334;-68
2022/12/02 02:42:56;;;;;;;30.33;11.90;;;-1.30;99.90;;;;;;4388272;28;658626;-68
2022/12/02 02:45:43;;;;;;;24.57;10.50;;;-1.30;99.90;;;;;;4388817;28;658885;-68
2022/12/02 02:48:30;;;;;;;26.00;11.33;;;-1.30;99.90;;;;;;4396012;28;659237;-68
2022/12/02 02:51:17;;;;;;;37.37;13.80;;;-1.40;99.90;;;;;;4409698;28;660102;-69
2022/12/02 02:54:05;;;;;;;27.23;11.57;;;-1.40;99.90;;;;;;4406928;28;658569;-67
2022/12/02 02:56:54;;;;;;;35.03;13.50;;;-1.40;99.90;;;;;;4410979;28;658243;-69
2022/12/02 02:59:41;;;;;;;27.00;10.30;;;-1.40;99.90;;;;;;4391114;28;659068;-68
2022/12/02 03:02:28;;;;;;;41.23;14.93;;;-1.40;99.90;;;;;;4418853;28;659598;-68
2022/12/02 03:05:15;;;;;;;31.90;11.68;;;-1.40;99.90;;;;;;4396839;28;658535;-68
2022/12/02 03:08:02;;;;;;;26.75;10.45;;;-1.40;99.90;;;;;;4412828;28;658278;-68
2022/12/02 03:10:49;;;;;;;26.23;10.07;;;-1.40;99.90;;;;;;4407816;28;659487;-68
2022/12/02 03:13:38;;;;;;;23.13;9.87;;;-1.40;99.90;;;;;;4396466;28;658509;-68
2022/12/02 03:16:25;;;;;;;34.73;12.67;;;-1.40;99.90;;;;;;4392368;28;657508;-68
2022/12/02 03:19:13;;;;;;;26.73;10.27;;;-1.40;99.90;;;;;;4415051;28;659960;-68
2022/12/02 03:22:00;;;;;;;19.07;8.70;;;-1.30;99.90;;;;;;4393891;28;658535;-67
2022/12/02 03:24:47;;;;;;;32.90;11.83;;;-1.40;99.90;;;;;;4416917;28;657663;-68
2022/12/02 03:27:34;;;;;;;41.67;13.73;;;-1.40;99.90;;;;;;4411176;28;658662;-69
2022/12/02 03:30:23;;;;;;;29.20;11.53;;;-1.40;99.90;;;;;;4389583;28;658471;-68
2022/12/02 03:33:10;;;;;;;21.27;9.35;;;-1.40;99.90;;;;;;4396520;28;659638;-68
2022/12/02 03:35:57;;;;;;;16.67;8.17;;;-1.30;99.90;;;;;;4415253;28;657109;-69
2022/12/02 03:38:44;;;;;;;17.90;8.40;;;-1.30;99.90;;;;;;4408955;28;657414;-68
2022/12/02 03:41:31;;;;;;;30.10;12.77;;;-1.30;99.90;;;;;;4394375;28;657427;-68
2022/12/02 03:44:18;;;;;;;25.20;10.00;;;-1.40;99.90;;;;;;4409852;28;659385;-69
2022/12/02 03:47:07;;;;;;;24.47;9.53;;;-1.40;99.90;;;;;;4390469;28;658775;-69
2022/12/02 03:49:54;;;;;;;33.63;12.97;;;-1.30;99.90;;;;;;4407686;28;657303;-69
2022/12/02 03:52:41;;;;;;;23.10;10.52;;;-1.40;99.90;;;;;;4393049;28;658928;-68
2022/12/02 03:55:28;;;;;;;31.42;11.60;;;-1.40;99.90;;;;;;4412460;28;659507;-68
2022/12/02 03:58:15;;;;;;;25.43;8.70;;;-1.40;99.90;;;;;;4389893;28;658670;-68
2022/12/02 04:01:02;;;;;;;23.83;10.00;;;-1.40;99.90;;;;;;4411110;28;658274;-68
2022/12/02 04:03:51;;;;;;;43.07;15.53;;;-1.40;99.90;;;;;;4409801;28;658754;-68
2022/12/02 04:06:38;;;;;;;30.03;12.40;;;-1.40;99.90;;;;;;4385143;28;659445;-67
2022/12/02 04:09:25;;;;;;;40.53;15.13;;;-1.40;99.90;;;;;;4392672;28;658827;-68
2022/12/02 04:12:12;;;;;;;18.73;8.90;;;-1.40;99.90;;;;;;4411807;28;658312;-70
2022/12/02 04:14:59;;;;;;;15.83;8.03;;;-1.40;99.90;;;;;;4409409;28;658099;-69
2022/12/02 04:17:46;;;;;;;42.83;14.43;;;-1.40;99.90;;;;;;4386404;28;657622;-68
2022/12/02 04:20:35;;;;;;;38.47;12.10;;;-1.40;99.90;;;;;;4409086;28;658857;-69
2022/12/02 04:23:22;;;;;;;35.43;12.27;;;-1.40;99.90;;;;;;4388687;28;660662;-69
2022/12/02 04:26:09;;;;;;;18.00;7.93;;;-1.40;99.90;;;;;;4405868;28;658989;-68
2022/12/02 04:28:56;;;;;;;29.67;12.07;;;-1.40;99.90;;;;;;4395526;28;657786;-69
2022/12/02 04:31:43;;;;;;;21.50;9.63;;;-1.40;99.90;;;;;;4409862;28;659130;-69
2022/12/02 04:34:30;;;;;;;20.90;8.52;;;-1.40;99.90;;;;;;4392313;28;658077;-68
2022/12/02 04:37:19;;;;;;;30.87;10.70;;;-1.40;99.90;;;;;;4418005;28;658364;-69
2022/12/02 04:40:07;;;;;;;25.70;10.70;;;-1.40;99.90;;;;;;4390488;28;658939;-68
2022/12/02 04:42:55;;;;;;;22.80;8.07;;;-1.40;99.90;;;;;;4412112;28;658659;-68
2022/12/02 04:45:42;;;;;;;33.13;11.65;;;-1.40;99.90;;;;;;4391252;28;659175;-68
2022/12/02 04:48:29;;;;;;;24.73;9.90;;;-1.40;99.90;;;;;;4408640;28;659999;-69
2022/12/02 04:51:16;;;;;;;19.47;7.90;;;-1.40;99.90;;;;;;4389923;28;657684;-68
2022/12/02 04:54:04;;;;;;;17.97;8.23;;;-1.40;99.90;;;;;;4409505;28;659161;-68
2022/12/02 04:56:51;;;;;;;24.30;9.13;;;-1.40;99.90;;;;;;4390091;28;657140;-69
2022/12/02 04:59:39;;;;;;;21.10;8.80;;;-1.50;99.90;;;;;;4415529;28;658972;-69
2022/12/02 05:02:26;;;;;;;19.17;7.93;;;-1.50;99.90;;;;;;4842367;28;657721;-68
2022/12/02 05:05:13;;;;;;;22.33;7.97;;;-1.50;99.90;;;;;;4415119;28;658526;-68
2022/12/02 05:08:00;;;;;;;30.08;10.60;;;-1.50;99.90;;;;;;4393081;28;657620;-67
2022/12/02 05:10:49;;;;;;;12.53;5.97;;;-1.50;99.90;;;;;;4412012;28;658935;-68
2022/12/02 05:13:36;;;;;;;21.97;7.43;;;-1.50;99.90;;;;;;4390712;28;658359;-68
2022/12/02 05:16:23;;;;;;;19.37;8.40;;;-1.50;99.90;;;;;;4412611;28;660424;-68
2022/12/02 05:19:10;;;;;;;32.90;10.37;;;-1.50;99.90;;;;;;4396494;28;657211;-68
2022/12/02 05:21:57;;;;;;;19.63;8.17;;;-1.50;99.90;;;;;;4415208;28;658501;-69
2022/12/02 05:24:46;;;;;;;24.53;8.17;;;-1.40;99.90;;;;;;4409850;28;658948;-67
2022/12/02 05:27:35;;;;;;;21.00;7.90;;;-1.40;99.90;;;;;;4389757;28;658295;-68
2022/12/02 05:30:22;;;;;;;20.43;8.57;;;-1.40;99.90;;;;;;4397734;28;657490;-69
2022/12/02 05:33:09;;;;;;;51.55;12.90;;;-1.40;99.90;;;;;;4414754;28;658428;-67
2022/12/02 05:35:56;;;;;;;38.33;10.80;;;-1.50;99.90;;;;;;4391576;28;660716;-69
2022/12/02 05:38:43;;;;;;;36.97;10.57;;;-1.50;99.90;;;;;;4415890;28;660945;-69
2022/12/02 05:41:30;;;;;;;25.70;9.23;;;-1.50;99.90;;;;;;4394366;28;659180;-69
2022/12/02 05:44:22;;;;;;;52.60;12.70;;;-1.50;99.90;;;;;;4415251;28;658841;-68
2022/12/02 05:47:12;;;;;;;22.67;8.20;;;-1.50;99.90;;;;;;4413374;28;658455;-68
2022/12/02 05:49:59;;;;;;;17.93;6.73;;;-1.50;99.90;;;;;;4411186;28;657503;-68
2022/12/02 05:52:51;;;;;;;60.30;13.87;;;-1.50;99.90;;;;;;4395912;28;658549;-69
2022/12/02 05:55:38;;;;;;;27.00;8.93;;;-1.50;99.90;;;;;;4388647;28;660156;-68
2022/12/02 05:58:25;;;;;;;20.80;8.50;;;-1.50;99.90;;;;;;4401148;28;660227;-68
2022/12/02 06:01:20;;;;;;;31.13;10.83;;;-1.50;99.90;;;;;;4418257;28;658715;-69
2022/12/02 06:04:11;;;;;;;26.03;8.77;;;-1.50;99.90;;;;;;4367924;28;659768;-68
2022/12/02 06:07:00;;;;;;;49.03;11.77;;;-1.50;99.90;;;;;;4391227;28;657714;-67
2022/12/02 06:09:47;;;;;;;22.07;7.97;;;-1.50;99.90;;;;;;4392935;28;659127;-68
2022/12/02 06:12:34;;;;;;;28.02;10.13;;;-1.50;99.90;;;;;;4414523;28;657495;-69
2022/12/02 06:15:21;;;;;;;29.57;9.77;;;-1.50;99.90;;;;;;4396436;28;659077;-69
2022/12/02 06:18:14;;;;;;;38.90;10.87;;;-1.50;99.90;;;;;;4412545;28;658886;-67
2022/12/02 06:21:03;;;;;;;43.87;13.53;;;-1.50;99.90;;;;;;4395499;28;658636;-68
2022/12/02 06:23:51;;;;;;;45.00;13.90;;;-1.50;99.90;;;;;;4397793;28;659003;-68
2022/12/02 06:26:39;;;;;;;26.73;9.67;;;-1.50;99.90;;;;;;4413047;28;658319;-68
2022/12/02 06:29:26;;;;;;;41.20;14.23;;;-1.50;99.90;;;;;;4398264;28;657176;-68
2022/12/02 06:32:14;;;;;;;19.13;8.33;;;-1.50;99.90;;;;;;4419075;28;660004;-68
2022/12/02 06:35:03;;;;;;;17.23;7.03;;;-1.50;99.90;;;;;;4389188;28;657404;-69
2022/12/02 06:37:50;;;;;;;16.77;7.63;;;-1.50;99.90;;;;;;4412630;28;657320;-68
2022/12/02 06:40:38;;;;;;;19.30;7.90;;;-1.50;99.90;;;;;;4414169;28;657763;-69
2022/12/02 06:43:26;;;;;;;20.33;7.57;;;-1.60;99.90;;;;;;4409991;28;658555;-67
2022/12/02 06:46:15;;;;;;;21.00;9.03;;;-1.50;99.90;;;;;;4413645;28;658508;-68
2022/12/02 06:49:13;;;;;;;21.83;8.83;;;-1.50;99.90;;;;;;4387197;28;658768;-68
2022/12/02 06:52:03;;;;;;;27.37;9.80;;;-1.60;99.90;;;;;;4377518;28;657674;-68
2022/12/02 06:54:50;;;;;;;18.17;8.23;;;-1.60;99.90;;;;;;4389566;28;658099;-68
2022/12/02 06:57:38;;;;;;;20.80;9.37;;;-1.60;99.90;;;;;;4413062;28;658814;-68
2022/12/02 07:00:25;;;;;;;21.13;8.90;;;-1.60;99.90;;;;;;4466054;28;657642;-69
2022/12/02 07:03:14;;;;;;;27.07;11.07;;;-1.60;99.90;;;;;;4803558;28;535365;-67
2022/12/02 07:06:09;;;;;;;16.23;7.57;;;-1.50;99.90;;;;;;4387684;28;659258;-69
2022/12/02 07:08:58;;;;;;;16.20;7.87;;;-1.50;99.90;;;;;;4362276;28;659096;-69
2022/12/02 07:11:53;;;;;;;23.63;9.20;;;-1.50;99.90;;;;;;4400793;28;657508;-67
2022/12/02 07:14:44;;;;;;;20.77;8.33;;;-1.60;99.90;;;;;;4403490;28;657968;-68
2022/12/02 07:17:32;;;;;;;19.27;7.33;;;-1.50;99.90;;;;;;4392038;28;657554;-68
2022/12/02 07:20:30;;;;;;;19.50;8.73;;;-1.60;99.90;;;;;;4410981;28;658482;-67
2022/12/02 07:23:19;;;;;;;18.80;8.80;;;-1.60;99.90;;;;;;4363239;28;657811;-68
2022/12/02 07:26:09;;;;;;;18.48;8.60;;;-1.60;99.90;;;;;;4389160;28;657834;-68
2022/12/02 07:28:58;;;;;;;19.50;8.80;;;-1.60;99.90;;;;;;4387727;28;657557;-68
2022/12/02 07:31:45;;;;;;;19.83;8.17;;;-1.60;99.90;;;;;;4390120;28;657650;-68
2022/12/02 07:34:33;;;;;;;64.60;9.93;;;-1.50;99.90;;;;;;4410482;28;658664;-69
2022/12/02 07:37:20;;;;;;;17.73;8.20;;;-1.50;99.90;;;;;;4399654;28;657325;-67
2022/12/02 07:40:08;;;;;;;18.97;8.10;;;-1.50;99.90;;;;;;4413548;28;658369;-68
2022/12/02 07:42:57;;;;;;;19.43;8.97;;;-1.50;99.90;;;;;;4391885;28;658232;-67
2022/12/02 07:45:44;;;;;;;19.97;9.57;;;-1.50;99.90;;;;;;4407555;28;658363;-68
2022/12/02 07:48:31;;;;;;;17.45;8.90;;;-1.50;99.90;;;;;;4389352;28;658358;-68
2022/12/02 07:51:18;;;;;;;14.03;6.80;;;-1.50;99.90;;;;;;4422079;28;658923;-68
2022/12/02 07:54:05;;;;;;;18.57;8.47;;;-1.60;99.90;;;;;;4394323;28;658692;-68
2022/12/02 07:56:52;;;;;;;24.67;10.10;;;-1.60;99.90;;;;;;4414293;28;657081;-68
2022/12/02 07:59:41;;;;;;;20.73;8.50;;;-1.60;99.90;;;;;;4406250;28;658453;-69
2022/12/02 08:02:28;;;;;;;21.17;9.30;;;-1.70;99.90;;;;;;4392548;28;658573;-68
2022/12/02 08:05:15;;;;;;;29.65;11.32;;;-1.60;99.90;;;;;;4388504;28;657478;-68
2022/12/02 08:08:02;;;;;;;28.43;11.77;;;-1.70;99.90;;;;;;4405150;28;659575;-67
2022/12/02 08:10:49;;;;;;;21.43;9.73;;;-1.60;99.90;;;;;;4406082;28;658441;-68
2022/12/02 08:13:36;;;;;;;22.47;9.97;;;-1.60;99.90;;;;;;4387723;28;658229;-68
2022/12/02 08:16:25;;;;;;;23.97;11.63;;;-1.60;99.90;;;;;;4412027;28;658849;-69
2022/12/02 08:19:12;;;;;;;25.57;11.17;;;-1.70;99.90;;;;;;4389131;28;659582;-69
2022/12/02 08:21:59;;;;;;;37.87;14.10;;;-1.70;99.90;;;;;;4405426;28;660525;-69
2022/12/02 08:24:46;;;;;;;32.93;12.63;;;-1.70;99.90;;;;;;4386536;28;658756;-68
2022/12/02 08:27:33;;;;;;;36.00;13.43;;;-1.70;99.90;;;;;;4405256;28;660462;-68
2022/12/02 08:30:21;;;;;;;53.83;16.97;;;-1.70;99.90;;;;;;4386195;28;658557;-68
2022/12/02 08:33:09;;;;;;;68.20;23.43;;;-1.70;99.90;;;;;;4413300;28;659198;-68
2022/12/02 08:35:56;;;;;;;35.17;14.83;;;-1.70;99.90;;;;;;4390903;28;659440;-68
2022/12/02 08:38:43;;;;;;;29.90;12.87;;;-1.70;99.90;;;;;;4411993;28;659123;-68
2022/12/02 08:41:31;;;;;;;28.23;12.53;;;-1.60;99.90;;;;;;4391006;28;658596;-68
2022/12/02 08:44:18;;;;;;;34.47;14.13;;;-1.70;99.90;;;;;;4408562;28;659183;-68
2022/12/02 08:47:05;;;;;;;36.77;14.43;;;-1.60;99.90;;;;;;4401543;28;658712;-68
2022/12/02 08:49:53;;;;;;;30.65;14.65;;;-1.60;99.90;;;;;;4408678;28;658894;-67
2022/12/02 08:52:41;;;;;;;36.33;15.83;;;-1.60;99.90;;;;;;4386043;28;658417;-68
2022/12/02 08:55:28;;;;;;;34.90;15.10;;;-1.60;99.90;;;;;;4408532;28;659701;-69
2022/12/02 08:58:15;;;;;;;34.87;14.73;;;-1.60;99.90;;;;;;4398617;28;659233;-67
2022/12/02 09:01:02;;;;;;;30.65;13.32;;;-1.60;99.90;;;;;;4413153;28;658001;-69
2022/12/02 09:03:49;;;;;;;32.07;14.43;;;-1.50;99.90;;;;;;4409159;28;658868;-68
2022/12/02 09:06:38;;;;;;;27.20;11.60;;;-1.50;99.90;;;;;;4381366;28;658790;-68
2022/12/02 09:09:25;;;;;;;34.70;13.63;;;-1.40;99.90;;;;;;4396674;28;658606;-67
2022/12/02 09:12:12;;;;;;;35.95;14.20;;;-1.50;99.90;;;;;;4416133;28;658228;-70
2022/12/02 09:15:00;;;;;;;45.07;18.23;;;-1.50;99.90;;;;;;4414300;28;659044;-68
2022/12/02 09:17:47;;;;;;;38.20;14.80;;;-1.50;99.90;;;;;;4410645;28;658339;-68
2022/12/02 09:20:34;;;;;;;41.53;17.57;;;-1.50;99.90;;;;;;4412662;28;658711;-68
2022/12/02 09:23:23;;;;;;;52.30;19.03;;;-1.40;99.90;;;;;;4393658;28;658774;-68
2022/12/02 09:26:10;;;;;;;44.60;16.63;;;-1.40;99.90;;;;;;4394943;28;658827;-68
2022/12/02 09:28:57;;;;;;;45.72;18.90;;;-1.40;99.90;;;;;;4416905;28;659979;-68
2022/12/02 09:31:44;;;;;;;42.47;17.33;;;-1.30;99.90;;;;;;4412765;28;658789;-68
2022/12/02 09:34:31;;;;;;;40.70;15.10;;;-1.20;99.90;;;;;;4387414;28;659831;-69
2022/12/02 09:37:18;;;;;;;44.17;15.30;;;-1.20;99.90;;;;;;4410679;28;659501;-69
2022/12/02 09:40:08;;;;;;;51.03;19.87;;;-1.20;99.90;;;;;;4387191;28;659847;-68
2022/12/02 09:42:56;;;;;;;55.63;18.30;;;-1.20;99.90;;;;;;4387704;28;658334;-67
2022/12/02 09:45:43;;;;;;;39.83;16.10;;;-1.20;99.90;;;;;;4414630;28;659264;-69
2022/12/02 09:48:30;;;;;;;42.37;15.63;;;-1.20;99.90;;;;;;4400418;28;658668;-67
2022/12/02 09:51:17;;;;;;;41.42;15.02;;;-1.10;99.90;;;;;;4410011;28;658203;-68
2022/12/02 09:54:04;;;;;;;37.67;15.47;;;-1.10;99.90;;;;;;4408165;28;658616;-68
2022/12/02 09:56:53;;;;;;;37.60;14.70;;;-1.10;99.90;;;;;;4383709;28;661187;-69
2022/12/02 09:59:40;;;;;;;34.53;13.80;;;-1.10;99.90;;;;;;4396506;28;658591;-67
2022/12/02 10:02:29;;;;;;;42.10;14.37;;;-1.20;99.90;;;;;;4417342;28;658888;-69
2022/12/02 10:05:17;;;;;;;29.70;12.93;;;-1.20;99.90;;;;;;4388745;28;659450;-68
2022/12/02 10:08:07;;;;;;;30.73;13.13;;;-1.20;99.90;;;;;;4406068;28;658260;-67
2022/12/02 10:10:55;;;;;;;30.07;12.43;;;-1.20;99.90;;;;;;4416965;28;660080;-68
2022/12/02 10:13:44;;;;;;;35.43;14.80;;;-1.20;99.90;;;;;;4392240;28;658655;-69
2022/12/02 10:16:31;;;;;;;25.70;11.90;;;-1.20;99.90;;;;;;4390233;28;658435;-69
2022/12/02 10:19:18;;;;;;;33.10;14.13;;;-1.20;99.90;;;;;;4410516;28;659730;-69
2022/12/02 10:22:07;;;;;;;36.87;16.17;;;-1.20;99.90;;;;;;4390305;28;659086;-68
2022/12/02 10:24:54;;;;;;;57.97;19.10;;;-1.20;99.90;;;;;;4415715;28;658589;-69
2022/12/02 10:27:41;;;;;;;58.72;19.17;;;-1.20;99.90;;;;;;4393398;28;658679;-68
2022/12/02 10:30:30;;;;;;;35.43;13.87;;;-1.20;99.90;;;;;;4410719;28;659788;-68
2022/12/02 10:33:17;;;;;;;41.00;15.87;;;-1.20;99.90;;;;;;4385420;28;660701;-69
2022/12/02 10:36:05;;;;;;;39.57;15.87;;;-1.30;99.90;;;;;;4413044;28;658706;-69
2022/12/02 10:38:52;;;;;;;35.03;15.37;;;-1.30;99.90;;;;;;4392146;28;660016;-69
2022/12/02 10:41:39;;;;;;;38.38;15.20;;;-1.30;99.90;;;;;;4409671;28;658974;-69
2022/12/02 10:44:26;;;;;;;37.72;16.27;;;-1.30;99.90;;;;;;4395031;28;658876;-68
2022/12/02 10:47:18;;;;;;;32.63;14.13;;;-1.30;99.90;;;;;;4407212;28;659930;-68
2022/12/02 10:50:09;;;;;;;43.57;17.43;;;-1.30;99.90;;;;;;4372181;28;658401;-68
2022/12/02 10:52:57;;;;;;;36.28;15.23;;;-1.30;99.90;;;;;;4388863;28;658526;-68
2022/12/02 10:55:45;;;;;;;37.77;14.53;;;-1.30;99.90;;;;;;4409311;28;658920;-68
2022/12/02 10:58:32;;;;;;;44.67;16.10;;;-1.40;99.90;;;;;;4383272;28;659799;-68
2022/12/02 11:01:20;;;;;;;33.87;13.37;;;-1.40;99.90;;;;;;4675285;28;658174;-68
2022/12/02 11:04:10;;;;;;;42.07;15.93;;;-1.40;99.90;;;;;;4600357;28;537746;-67
2022/12/02 11:06:57;;;;;;;42.03;16.37;;;-1.40;99.90;;;;;;4383091;28;659273;-68
2022/12/02 11:09:46;;;;;;;34.40;13.83;;;-1.40;99.90;;;;;;4404405;28;659421;-68
2022/12/02 11:12:35;;;;;;;36.20;14.30;;;-1.50;99.90;;;;;;4413726;28;660262;-68
2022/12/02 11:15:39;;;;;;;42.70;15.53;;;-1.50;99.90;;;;;;4383853;28;659201;-68
2022/12/02 11:18:51;;;;;;;40.60;15.27;;;-1.50;99.90;;;;;;4361249;28;659922;-68
2022/12/02 11:21:40;;;;;;;49.10;17.67;;;-1.50;99.90;;;;;;4385553;28;658657;-68
2022/12/02 11:24:37;;;;;;;35.13;13.83;;;-1.50;99.90;;;;;;4384138;28;659097;-68
2022/12/02 11:27:24;;;;;;;65.07;18.20;;;-1.50;99.90;;;;;;4386379;28;658726;-68
2022/12/02 11:30:35;;;;;;;55.30;17.73;;;-1.40;99.90;;;;;;4386066;28;659629;-68
2022/12/02 11:34:00;;;;;;;72.93;20.27;;;-1.40;99.90;;;;;;4365145;28;659753;-69
2022/12/02 11:36:56;;;;;;;58.63;16.40;;;-1.40;99.90;;;;;;4365545;28;659731;-68
2022/12/02 11:39:43;;;;;;;37.90;11.40;;;-1.40;99.90;;;;;;4385481;28;659347;-65
2022/12/02 11:42:31;;;;;;;83.30;21.70;;;-1.40;99.90;;;;;;4392117;28;658981;-65
2022/12/02 11:45:53;;;;;;;45.63;14.70;;;-1.50;99.90;;;;;;4415266;28;659690;-64
2022/12/02 11:48:44;;;;;;;45.30;15.60;;;-1.60;99.90;;;;;;4387575;28;658848;-66
2022/12/02 11:51:35;;;;;;;58.07;16.87;;;-1.60;99.90;;;;;;4386512;28;659636;-65
2022/12/02 11:54:23;;;;;;;62.63;18.63;;;-1.60;99.90;;;;;;4387613;28;659856;-64
2022/12/02 11:57:17;;;;;;;77.40;18.93;;;-1.70;99.90;;;;;;4389926;28;658555;-66
2022/12/02 12:00:17;;;;;;;155.23;32.73;;;-1.70;99.90;;;;;;4389392;28;658702;-65
2022/12/02 12:03:11;;;;;;;177.50;36.77;;;-1.70;99.90;;;;;;4386811;28;660069;-64
2022/12/02 12:06:07;;;;;;;50.90;18.27;;;-1.70;99.90;;;;;;4383866;28;659500;-64
2022/12/02 12:08:55;;;;;;;259.27;25.60;;;-1.70;99.90;;;;;;4391365;28;658498;-64
2022/12/02 12:11:44;;;;;;;112.40;30.60;;;-1.60;99.90;;;;;;4381648;28;660780;-64
2022/12/02 12:14:31;;;;;;;76.13;23.10;;;-1.60;99.90;;;;;;4386393;28;659972;-63
2022/12/02 12:17:29;;;;;;;82.15;26.00;;;-1.60;99.90;;;;;;4408016;28;659475;-64
2022/12/02 12:20:41;;;;;;;78.20;24.33;;;-1.60;99.90;;;;;;4390049;28;658528;-63
2022/12/02 12:23:30;;;;;;;39.70;16.47;;;-1.60;99.90;;;;;;4392687;28;659625;-65
2022/12/02 12:26:32;;;;;;;59.10;17.70;;;-1.60;99.90;;;;;;4381538;28;659401;-63
2022/12/02 12:29:21;;;;;;;42.03;16.60;;;-1.60;99.90;;;;;;4384396;28;658824;-64
2022/12/02 12:32:09;;;;;;;40.87;15.60;;;-1.60;99.90;;;;;;4389900;28;658326;-63
2022/12/02 12:34:56;;;;;;;40.83;15.70;;;-1.50;99.90;;;;;;4383822;28;659003;-64
2022/12/02 12:37:43;;;;;;;52.27;19.80;;;-1.60;99.90;;;;;;4409231;28;658085;-66
2022/12/02 12:40:30;;;;;;;46.43;17.80;;;-1.60;99.90;;;;;;4393847;28;659267;-65
2022/12/02 12:43:17;;;;;;;50.80;21.42;;;-1.60;99.90;;;;;;4395208;28;658744;-65
2022/12/02 12:46:06;;;;;;;57.10;24.80;;;-1.60;99.90;;;;;;4400819;28;658622;-66
2022/12/02 12:48:53;;;;;;;45.00;15.93;;;-1.70;99.90;;;;;;4372380;28;660176;-63
2022/12/02 12:51:40;;;;;;;43.08;18.02;;;-1.70;99.90;;;;;;4374823;28;659081;-65
2022/12/02 12:54:27;;;;;;;41.37;18.03;;;-1.70;99.90;;;;;;4396060;28;658127;-64
2022/12/02 12:57:14;;;;;;;71.00;26.93;;;-1.70;99.90;;;;;;4394788;28;658440;-65
2022/12/02 13:00:02;;;;;;;55.03;22.17;;;-1.70;99.90;;;;;;4375685;28;658567;-64
2022/12/02 13:02:50;;;;;;;48.00;18.13;;;-1.80;99.90;;;;;;4392583;28;659049;-64
2022/12/02 13:05:37;;;;;;;37.00;15.70;;;-1.70;99.90;;;;;;4372896;28;659326;-64
2022/12/02 13:08:24;;;;;;;61.60;22.00;;;-1.70;99.90;;;;;;4389273;28;658546;-64
2022/12/02 13:11:11;;;;;;;55.30;19.47;;;-1.70;99.90;;;;;;4378491;28;658575;-65
2022/12/02 13:13:58;;;;;;;60.10;19.40;;;-1.80;99.90;;;;;;4398496;28;659307;-64
2022/12/02 13:16:46;;;;;;;46.83;15.90;;;-1.80;99.90;;;;;;4372729;28;659579;-65
2022/12/02 13:19:34;;;;;;;116.60;32.20;;;-1.80;99.90;;;;;;4389755;28;659539;-65
2022/12/02 13:22:21;;;;;;;112.05;30.33;;;-1.90;99.90;;;;;;4375187;28;662181;-63
2022/12/02 13:25:09;;;;;;;90.47;27.03;;;-1.80;99.90;;;;;;4395145;28;661020;-65
2022/12/02 13:27:56;;;;;;;94.93;27.27;;;-1.80;99.90;;;;;;4378895;28;658550;-63
2022/12/02 13:30:43;;;;;;;73.63;23.20;;;-1.90;99.90;;;;;;4390521;28;659594;-65
2022/12/02 13:33:30;;;;;;;56.22;20.30;;;-1.80;99.90;;;;;;4374578;28;658569;-66
2022/12/02 13:36:19;;;;;;;51.10;20.23;;;-1.90;99.90;;;;;;4398935;28;658248;-64
2022/12/02 13:39:10;;;;;;;68.03;23.13;;;-1.90;99.90;;;;;;4373872;28;659142;-65
2022/12/02 13:41:57;;;;;;;59.30;22.60;;;-1.90;99.90;;;;;;4375114;28;659746;-63
2022/12/02 13:44:44;;;;;;;52.10;20.17;;;-1.90;99.90;;;;;;4390146;28;657972;-63
2022/12/02 13:47:31;;;;;;;49.73;20.23;;;-1.90;99.90;;;;;;4374495;28;659259;-64
2022/12/02 13:50:18;;;;;;;40.43;16.33;;;-1.90;99.90;;;;;;4392371;28;660117;-63
2022/12/02 13:53:07;;;;;;;45.90;17.03;;;-1.80;99.90;;;;;;4374571;28;658553;-64
2022/12/02 13:55:54;;;;;;;39.23;16.70;;;-1.80;99.90;;;;;;4393127;28;658673;-66
2022/12/02 13:58:41;;;;;;;39.07;16.40;;;-1.90;99.90;;;;;;4376512;28;658914;-65
2022/12/02 14:01:28;;;;;;;38.20;14.77;;;-1.90;99.90;;;;;;4394300;28;659044;-65
2022/12/02 14:04:15;;;;;;;53.55;18.85;;;-1.80;99.90;;;;;;4379278;28;658995;-65
2022/12/02 14:07:02;;;;;;;59.23;21.07;;;-1.90;99.90;;;;;;4395679;28;658792;-64